Weather at Bromont (Roland Desourdy) Airport

Public forecast

Using degrees Celsius for public forecast. Weather courtesy of forecast.io.

Closest aviation weather report (METAR) to Bromont (Roland Desourdy) Airport

Closest report is Franklin County State Airport, 25.9 nm (48.0 km) SW. Retrieved 2021/02/27 02:35 UTC (12 minutes ago):

KFSO 270235Z AUTO 15003KT 10SM CLR M06/M14 A3038 RMK AO2 T10641139

Closest aviation forecast (TAF) to Bromont (Roland Desourdy) Airport

Closest forecast is MontrĂ©al / Saint-Hubert Airport, 31.6 nm (58.5 km) WNW. Retrieved 2021-02-27 00:42 UTC (2 hours ago):

TAF CYHU 262338Z 2700/2724 15008KT P6SM SCT250 BECMG 2708/2709 17012KT FM271100 17015KT P6SM FEW040 BKN140 OVC220 FM271400 17015KT 2SM -SN SCT015 OVC030 FM271500 17015G25KT 11/2SM -SN BKN015 OVC030 FM271700 17015G25KT 3SM -RASN BKN015 OVC030 FM271900 15015G25KT 6SM -RA BR SCT015 OVC030 FM272100 22010KT 6SM -RA BR BKN015 OVC030 PROB30 2721/2723 2SM -DZ BR BKN008 OVC015 FM272300 26020G30KT P6SM -SHRA SCT015 BKN030 RMK FCST BASED ON AUTO OBS NXT FCST BY 270600Z